sensor_id;sensor_type;location;lat;lon;timestamp;pressure;altitude;pressure_sealevel;temperature;humidity
20909;BME280;10614;53.198;6.570;2023-04-10T00:00:19;102243.66;;;10.34;71.19
20909;BME280;10614;53.198;6.570;2023-04-10T00:02:21;102240.28;;;10.26;71.42
20909;BME280;10614;53.198;6.570;2023-04-10T00:04:23;102243.72;;;10.31;71.54
20909;BME280;10614;53.198;6.570;2023-04-10T00:06:25;102242.84;;;10.27;71.26
20909;BME280;10614;53.198;6.570;2023-04-10T00:08:28;102237.63;;;10.26;72.07
20909;BME280;10614;53.198;6.570;2023-04-10T00:10:29;102226.25;;;10.24;71.30
20909;BME280;10614;53.198;6.570;2023-04-10T00:12:31;102230.69;;;10.22;72.02
20909;BME280;10614;53.198;6.570;2023-04-10T00:14:33;102234.19;;;10.21;72.65
20909;BME280;10614;53.198;6.570;2023-04-10T00:16:35;102228.97;;;10.19;72.18
20909;BME280;10614;53.198;6.570;2023-04-10T00:18:36;102229.03;;;10.16;71.36
20909;BME280;10614;53.198;6.570;2023-04-10T00:20:38;102233.44;;;10.14;71.28
20909;BME280;10614;53.198;6.570;2023-04-10T00:22:41;102230.81;;;10.12;72.22
20909;BME280;10614;53.198;6.570;2023-04-10T00:24:43;102228.25;;;10.09;71.81
20909;BME280;10614;53.198;6.570;2023-04-10T00:26:44;102225.66;;;10.06;71.43
20909;BME280;10614;53.198;6.570;2023-04-10T00:28:46;102229.25;;;10.01;72.02
20909;BME280;10614;53.198;6.570;2023-04-10T00:30:47;102214.38;;;9.98;71.79
20909;BME280;10614;53.198;6.570;2023-04-10T00:32:49;102223.16;;;9.97;72.27
20909;BME280;10614;53.198;6.570;2023-04-10T00:34:50;102220.56;;;9.96;73.18
20909;BME280;10614;53.198;6.570;2023-04-10T00:36:52;102217.09;;;9.93;72.79
20909;BME280;10614;53.198;6.570;2023-04-10T00:38:55;102204.84;;;9.91;73.19
20909;BME280;10614;53.198;6.570;2023-04-10T00:40:56;102211.06;;;9.87;72.71
20909;BME280;10614;53.198;6.570;2023-04-10T00:42:58;102205.00;;;9.82;73.30
20909;BME280;10614;53.198;6.570;2023-04-10T00:44:59;102203.28;;;9.79;72.32
20909;BME280;10614;53.198;6.570;2023-04-10T00:47:01;102200.66;;;9.78;73.23
20909;BME280;10614;53.198;6.570;2023-04-10T00:49:02;102191.06;;;9.73;73.39
20909;BME280;10614;53.198;6.570;2023-04-10T00:51:05;102192.06;;;9.68;74.22
20909;BME280;10614;53.198;6.570;2023-04-10T00:53:06;102191.19;;;9.66;73.49
20909;BME280;10614;53.198;6.570;2023-04-10T00:55:09;102187.72;;;9.65;74.14
20909;BME280;10614;53.198;6.570;2023-04-10T00:57:12;102183.38;;;9.63;73.29
20909;BME280;10614;53.198;6.570;2023-04-10T00:59:13;102181.66;;;9.60;73.41
20909;BME280;10614;53.198;6.570;2023-04-10T01:01:15;102174.69;;;9.56;73.88
20909;BME280;10614;53.198;6.570;2023-04-10T01:03:16;102165.97;;;9.54;73.46
20909;BME280;10614;53.198;6.570;2023-04-10T01:05:19;102163.34;;;9.54;73.67
20909;BME280;10614;53.198;6.570;2023-04-10T01:07:26;102170.38;;;9.52;73.77
20909;BME280;10614;53.198;6.570;2023-04-10T01:09:33;102160.78;;;9.48;73.94
20909;BME280;10614;53.198;6.570;2023-04-10T01:11:41;102159.06;;;9.45;74.65
20909;BME280;10614;53.198;6.570;2023-04-10T01:13:46;102152.97;;;9.43;73.73
20909;BME280;10614;53.198;6.570;2023-04-10T01:16:01;102160.88;;;9.42;74.69
20909;BME280;10614;53.198;6.570;2023-04-10T01:18:07;102159.16;;;9.39;74.48
20909;BME280;10614;53.198;6.570;2023-04-10T01:20:12;102144.34;;;9.35;73.96
20909;BME280;10614;53.198;6.570;2023-04-10T01:22:14;102152.22;;;9.34;74.26
20909;BME280;10614;53.198;6.570;2023-04-10T01:24:20;102149.63;;;9.32;75.02
20909;BME280;10614;53.198;6.570;2023-04-10T01:26:31;102146.16;;;9.28;74.51
20909;BME280;10614;53.198;6.570;2023-04-10T01:28:50;102142.69;;;9.26;74.38
20909;BME280;10614;53.198;6.570;2023-04-10T01:30:52;102141.84;;;9.24;74.77
20909;BME280;10614;53.198;6.570;2023-04-10T01:32:57;102142.75;;;9.22;74.61
20909;BME280;10614;53.198;6.570;2023-04-10T01:35:02;102140.16;;;9.20;74.71
20909;BME280;10614;53.198;6.570;2023-04-10T01:37:07;102138.47;;;9.16;74.79
20909;BME280;10614;53.198;6.570;2023-04-10T01:39:12;102129.75;;;9.13;74.90
20909;BME280;10614;53.198;6.570;2023-04-10T01:41:14;102135.06;;;9.08;75.46
20909;BME280;10614;53.198;6.570;2023-04-10T01:43:16;102121.97;;;9.05;75.37
20909;BME280;10614;53.198;6.570;2023-04-10T01:45:22;102130.78;;;9.01;75.58
20909;BME280;10614;53.198;6.570;2023-04-10T01:47:26;102122.94;;;8.98;76.31
20909;BME280;10614;53.198;6.570;2023-04-10T01:49:28;102114.28;;;8.90;76.01
20909;BME280;10614;53.198;6.570;2023-04-10T01:51:30;102114.25;;;8.91;76.41
20909;BME280;10614;53.198;6.570;2023-04-10T01:53:32;102121.34;;;8.87;76.36
20909;BME280;10614;53.198;6.570;2023-04-10T01:55:36;102118.75;;;8.83;76.99
20909;BME280;10614;53.198;6.570;2023-04-10T01:57:38;102113.53;;;8.80;76.58
20909;BME280;10614;53.198;6.570;2023-04-10T01:59:40;102109.16;;;8.80;77.06
20909;BME280;10614;53.198;6.570;2023-04-10T02:01:43;102106.59;;;8.76;77.49
20909;BME280;10614;53.198;6.570;2023-04-10T02:03:44;102106.63;;;8.73;77.03
20909;BME280;10614;53.198;6.570;2023-04-10T02:05:49;102107.56;;;8.69;77.48
20909;BME280;10614;53.198;6.570;2023-04-10T02:07:53;102106.72;;;8.66;78.02
20909;BME280;10614;53.198;6.570;2023-04-10T02:09:59;102100.56;;;8.66;77.58
20909;BME280;10614;53.198;6.570;2023-04-10T02:12:03;102096.22;;;8.65;77.54
20909;BME280;10614;53.198;6.570;2023-04-10T02:14:06;102099.69;;;8.65;77.22
20909;BME280;10614;53.198;6.570;2023-04-10T02:16:11;102101.53;;;8.60;78.36
20909;BME280;10614;53.198;6.570;2023-04-10T02:18:17;102098.03;;;8.57;78.14
20909;BME280;10614;53.198;6.570;2023-04-10T02:20:20;102102.47;;;8.52;78.22
20909;BME280;10614;53.198;6.570;2023-04-10T02:22:23;102101.63;;;8.51;78.83
20909;BME280;10614;53.198;6.570;2023-04-10T02:24:25;102094.66;;;8.50;78.70
20909;BME280;10614;53.198;6.570;2023-04-10T02:26:27;102099.00;;;8.50;78.87
20909;BME280;10614;53.198;6.570;2023-04-10T02:28:28;102094.66;;;8.47;79.00
20909;BME280;10614;53.198;6.570;2023-04-10T02:30:30;102087.69;;;8.46;79.11
20909;BME280;10614;53.198;6.570;2023-04-10T02:32:32;102085.94;;;8.47;79.14
20909;BME280;10614;53.198;6.570;2023-04-10T02:34:35;102086.81;;;8.45;79.07
20909;BME280;10614;53.198;6.570;2023-04-10T02:36:36;102083.34;;;8.40;79.05
20909;BME280;10614;53.198;6.570;2023-04-10T02:38:38;102078.97;;;8.38;79.38
20909;BME280;10614;53.198;6.570;2023-04-10T02:40:39;102079.88;;;8.37;79.18
20909;BME280;10614;53.198;6.570;2023-04-10T02:42:41;102066.81;;;8.34;79.26
20909;BME280;10614;53.198;6.570;2023-04-10T02:44:43;102056.38;;;8.26;78.99
20909;BME280;10614;53.198;6.570;2023-04-10T02:46:45;102065.97;;;8.30;79.67
20909;BME280;10614;53.198;6.570;2023-04-10T02:48:46;102065.97;;;8.30;79.41
20909;BME280;10614;53.198;6.570;2023-04-10T02:50:54;102066.00;;;8.27;79.59
20909;BME280;10614;53.198;6.570;2023-04-10T02:52:55;102072.13;;;8.26;78.91
20909;BME280;10614;53.198;6.570;2023-04-10T02:54:57;102069.50;;;8.26;79.20
20909;BME280;10614;53.198;6.570;2023-04-10T02:56:58;102065.16;;;8.23;79.34
20909;BME280;10614;53.198;6.570;2023-04-10T02:59:00;102071.28;;;8.22;79.28
20909;BME280;10614;53.198;6.570;2023-04-10T03:01:03;102066.06;;;8.21;79.51
20909;BME280;10614;53.198;6.570;2023-04-10T03:03:05;102065.19;;;8.20;79.47
20909;BME280;10614;53.198;6.570;2023-04-10T03:05:07;102066.97;;;8.18;79.75
20909;BME280;10614;53.198;6.570;2023-04-10T03:07:11;102073.97;;;8.18;79.40
20909;BME280;10614;53.198;6.570;2023-04-10T03:09:12;102065.25;;;8.17;79.56
20909;BME280;10614;53.198;6.570;2023-04-10T03:11:14;102065.25;;;8.17;79.38
20909;BME280;10614;53.198;6.570;2023-04-10T03:13:15;102066.97;;;8.17;79.25
20909;BME280;10614;53.198;6.570;2023-04-10T03:15:17;102063.50;;;8.15;79.19
20909;BME280;10614;53.198;6.570;2023-04-10T03:17:18;102066.16;;;8.12;79.18
20909;BME280;10614;53.198;6.570;2023-04-10T03:19:20;102064.44;;;8.11;79.41
20909;BME280;10614;53.198;6.570;2023-04-10T03:21:21;102068.81;;;8.10;79.51
20909;BME280;10614;53.198;6.570;2023-04-10T03:23:24;102068.81;;;8.09;79.34
20909;BME280;10614;53.198;6.570;2023-04-10T03:25:26;102067.91;;;8.10;79.32
20909;BME280;10614;53.198;6.570;2023-04-10T03:27:27;102061.81;;;8.08;79.42
20909;BME280;10614;53.198;6.570;2023-04-10T03:29:31;102067.06;;;8.09;79.33
20909;BME280;10614;53.198;6.570;2023-04-10T03:31:32;102051.31;;;8.09;79.44
20909;BME280;10614;53.198;6.570;2023-04-10T03:33:34;102055.69;;;8.09;79.27
20909;BME280;10614;53.198;6.570;2023-04-10T03:35:35;102057.47;;;8.07;79.15
20909;BME280;10614;53.198;6.570;2023-04-10T03:37:37;102057.47;;;8.07;79.71
20909;BME280;10614;53.198;6.570;2023-04-10T03:39:40;102056.59;;;8.06;79.26
20909;BME280;10614;53.198;6.570;2023-04-10T03:41:41;102054.84;;;8.05;79.47
20909;BME280;10614;53.198;6.570;2023-04-10T03:43:43;102066.22;;;8.06;79.07
20909;BME280;10614;53.198;6.570;2023-04-10T03:45:45;102061.88;;;8.03;79.26
20909;BME280;10614;53.198;6.570;2023-04-10T03:47:47;102054.91;;;8.00;79.13
20909;BME280;10614;53.198;6.570;2023-04-10T03:49:48;102060.13;;;8.00;79.36
20909;BME280;10614;53.198;6.570;2023-04-10T03:51:50;102056.66;;;8.00;79.38
20909;BME280;10614;53.198;6.570;2023-04-10T03:53:51;102054.06;;;7.95;79.54
20909;BME280;10614;53.198;6.570;2023-04-10T03:55:54;102055.84;;;7.93;79.71
20909;BME280;10614;53.198;6.570;2023-04-10T03:57:56;102052.34;;;7.91;79.67
20909;BME280;10614;53.198;6.570;2023-04-10T03:59:57;102049.78;;;7.90;79.27
20909;BME280;10614;53.198;6.570;2023-04-10T04:01:59;102043.66;;;7.89;79.83
20909;BME280;10614;53.198;6.570;2023-04-10T04:04:02;102042.78;;;7.89;79.95
20909;BME280;10614;53.198;6.570;2023-04-10T04:06:04;102032.31;;;7.87;79.78
20909;BME280;10614;53.198;6.570;2023-04-10T04:08:05;102035.81;;;7.86;79.90
20909;BME280;10614;53.198;6.570;2023-04-10T04:10:07;102028.84;;;7.85;80.02
20909;BME280;10614;53.198;6.570;2023-04-10T04:12:11;102024.50;;;7.82;80.17
20909;BME280;10614;53.198;6.570;2023-04-10T04:14:12;102027.13;;;7.81;80.19
20909;BME280;10614;53.198;6.570;2023-04-10T04:16:14;102022.78;;;7.80;80.25
20909;BME280;10614;53.198;6.570;2023-04-10T04:18:16;102021.03;;;7.79;80.31
20909;BME280;10614;53.198;6.570;2023-04-10T04:20:18;102019.31;;;7.76;80.53
20909;BME280;10614;53.198;6.570;2023-04-10T04:22:19;102009.72;;;7.75;80.32
20909;BME280;10614;53.198;6.570;2023-04-10T04:24:21;102010.59;;;7.74;80.51
20909;BME280;10614;53.198;6.570;2023-04-10T04:26:23;102006.25;;;7.73;80.52
20909;BME280;10614;53.198;6.570;2023-04-10T04:28:27;102001.00;;;7.72;80.51
20909;BME280;10614;53.198;6.570;2023-04-10T04:30:29;101997.53;;;7.70;80.78
20909;BME280;10614;53.198;6.570;2023-04-10T04:32:31;101997.56;;;7.68;80.76
20909;BME280;10614;53.198;6.570;2023-04-10T04:34:33;101993.22;;;7.66;80.65
20909;BME280;10614;53.198;6.570;2023-04-10T04:36:35;101991.47;;;7.65;80.90
20909;BME280;10614;53.198;6.570;2023-04-10T04:38:36;101991.47;;;7.65;nan
20909;BME280;10614;53.198;6.570;2023-04-10T04:40:38;101982.75;;;7.63;81.09
20909;BME280;10614;53.198;6.570;2023-04-10T04:42:40;101981.91;;;7.59;81.05
20909;BME280;10614;53.198;6.570;2023-04-10T04:44:43;101989.78;;;7.59;81.03
20909;BME280;10614;53.198;6.570;2023-04-10T04:46:45;101986.31;;;7.57;81.10
20909;BME280;10614;53.198;6.570;2023-04-10T04:48:47;101980.19;;;7.56;81.07
20909;BME280;10614;53.198;6.570;2023-04-10T04:50:48;101980.19;;;7.56;81.27
20909;BME280;10614;53.198;6.570;2023-04-10T04:52:50;101974.97;;;7.55;81.40
20909;BME280;10614;53.198;6.570;2023-04-10T04:54:52;101970.63;;;7.54;81.42
20909;BME280;10614;53.198;6.570;2023-04-10T04:56:54;101977.59;;;7.53;81.35
20909;BME280;10614;53.198;6.570;2023-04-10T04:58:56;101968.88;;;7.51;81.47
20909;BME280;10614;53.198;6.570;2023-04-10T05:00:59;101975.00;;;7.52;81.37
20909;BME280;10614;53.198;6.570;2023-04-10T05:03:00;101984.63;;;7.50;81.65
20909;BME280;10614;53.198;6.570;2023-04-10T05:05:02;101974.16;;;7.48;81.93
20909;BME280;10614;53.198;6.570;2023-04-10T05:07:04;101974.16;;;7.48;82.10
20909;BME280;10614;53.198;6.570;2023-04-10T05:09:06;101968.03;;;7.48;82.12
20909;BME280;10614;53.198;6.570;2023-04-10T05:11:08;101968.91;;;7.47;81.95
20909;BME280;10614;53.198;6.570;2023-04-10T05:13:11;101968.03;;;7.48;82.44
20909;BME280;10614;53.198;6.570;2023-04-10T05:15:12;101970.66;;;7.49;82.52
20909;BME280;10614;53.198;6.570;2023-04-10T05:17:16;101973.25;;;7.51;82.42
20909;BME280;10614;53.198;6.570;2023-04-10T05:19:18;101973.25;;;7.51;82.75
20909;BME280;10614;53.198;6.570;2023-04-10T05:21:20;101969.75;;;7.52;82.86
20909;BME280;10614;53.198;6.570;2023-04-10T05:23:25;101974.09;;;7.54;82.97
20909;BME280;10614;53.198;6.570;2023-04-10T05:25:27;101969.72;;;7.53;82.71
20909;BME280;10614;53.198;6.570;2023-04-10T05:27:29;101973.19;;;7.55;82.76
20909;BME280;10614;53.198;6.570;2023-04-10T05:29:31;101968.81;;;7.57;83.46
20909;BME280;10614;53.198;6.570;2023-04-10T05:31:33;101969.72;;;7.56;83.46
20909;BME280;10614;53.198;6.570;2023-04-10T05:33:36;101974.91;;;7.59;83.81
20909;BME280;10614;53.198;6.570;2023-04-10T05:35:37;101974.03;;;7.60;83.74
20909;BME280;10614;53.198;6.570;2023-04-10T05:37:39;101984.50;;;7.62;83.95
20909;BME280;10614;53.198;6.570;2023-04-10T05:39:41;101982.75;;;7.63;83.88
20909;BME280;10614;53.198;6.570;2023-04-10T05:41:42;101978.34;;;7.65;84.22
20909;BME280;10614;53.198;6.570;2023-04-10T05:43:44;101978.34;;;7.66;84.12
20909;BME280;10614;53.198;6.570;2023-04-10T05:45:46;101971.34;;;7.67;84.24
20909;BME280;10614;53.198;6.570;2023-04-10T05:47:48;101973.97;;;7.68;84.32
20909;BME280;10614;53.198;6.570;2023-04-10T05:49:51;101973.06;;;7.69;84.26
20909;BME280;10614;53.198;6.570;2023-04-10T05:51:53;101974.81;;;7.70;84.39
20909;BME280;10614;53.198;6.570;2023-04-10T05:53:54;101971.31;;;7.70;84.35
20909;BME280;10614;53.198;6.570;2023-04-10T05:55:56;101970.41;;;7.72;84.48
20909;BME280;10614;53.198;6.570;2023-04-10T05:57:58;101971.31;;;7.73;84.73
20909;BME280;10614;53.198;6.570;2023-04-10T06:00:00;101965.16;;;7.74;84.55
20909;BME280;10614;53.198;6.570;2023-04-10T06:02:02;101962.53;;;7.75;84.50
20909;BME280;10614;53.198;6.570;2023-04-10T06:04:04;101966.03;;;7.77;84.70
20909;BME280;10614;53.198;6.570;2023-04-10T06:06:07;101959.88;;;7.80;84.77
20909;BME280;10614;53.198;6.570;2023-04-10T06:08:09;101965.06;;;7.81;84.87
20909;BME280;10614;53.198;6.570;2023-04-10T06:10:11;101953.69;;;7.84;84.42
20909;BME280;10614;53.198;6.570;2023-04-10T06:12:13;101960.69;;;7.85;84.94
20909;BME280;10614;53.198;6.570;2023-04-10T06:14:18;101954.53;;;7.88;84.80
20909;BME280;10614;53.198;6.570;2023-04-10T06:16:20;101949.28;;;7.89;84.65
20909;BME280;10614;53.198;6.570;2023-04-10T06:18:22;101950.09;;;7.91;84.73
20909;BME280;10614;53.198;6.570;2023-04-10T06:20:25;101950.09;;;7.94;84.83
20909;BME280;10614;53.198;6.570;2023-04-10T06:22:28;101950.94;;;7.96;84.80
20909;BME280;10614;53.198;6.570;2023-04-10T06:24:32;101950.91;;;7.99;84.64
20909;BME280;10614;53.198;6.570;2023-04-10T06:26:34;101945.63;;;8.02;84.07
20909;BME280;10614;53.198;6.570;2023-04-10T06:28:36;101943.84;;;8.04;84.54
20909;BME280;10614;53.198;6.570;2023-04-10T06:30:38;101939.47;;;8.07;84.72
20909;BME280;10614;53.198;6.570;2023-04-10T06:32:39;101940.31;;;8.09;84.47
20909;BME280;10614;53.198;6.570;2023-04-10T06:34:41;101936.78;;;8.11;84.62
20909;BME280;10614;53.198;6.570;2023-04-10T06:36:43;101930.63;;;8.15;84.95
20909;BME280;10614;53.198;6.570;2023-04-10T06:38:46;101932.38;;;8.15;84.72
20909;BME280;10614;53.198;6.570;2023-04-10T06:40:49;101926.22;;;8.17;84.52
20909;BME280;10614;53.198;6.570;2023-04-10T06:42:50;101921.84;;;8.18;85.03
20909;BME280;10614;53.198;6.570;2023-04-10T06:44:54;101923.53;;;8.22;84.68
20909;BME280;10614;53.198;6.570;2023-04-10T06:46:55;101916.50;;;8.24;84.55
20909;BME280;10614;53.198;6.570;2023-04-10T06:48:57;101913.88;;;8.25;84.42
20909;BME280;10614;53.198;6.570;2023-04-10T06:51:00;101906.84;;;8.29;84.46
20909;BME280;10614;53.198;6.570;2023-04-10T06:53:02;101912.91;;;8.33;84.58
20909;BME280;10614;53.198;6.570;2023-04-10T06:55:06;101909.41;;;8.34;84.19
20909;BME280;10614;53.198;6.570;2023-04-10T06:57:08;101909.34;;;8.35;84.22
20909;BME280;10614;53.198;6.570;2023-04-10T06:59:10;101901.47;;;8.38;84.53
20909;BME280;10614;53.198;6.570;2023-04-10T07:01:13;101900.59;;;8.41;84.47
20909;BME280;10614;53.198;6.570;2023-04-10T07:03:16;101897.06;;;8.43;84.33
20909;BME280;10614;53.198;6.570;2023-04-10T07:05:20;101898.75;;;8.48;84.13
20909;BME280;10614;53.198;6.570;2023-04-10T07:07:23;101898.69;;;8.51;84.42
20909;BME280;10614;53.198;6.570;2023-04-10T07:09:25;101901.25;;;8.54;83.90
20909;BME280;10614;53.198;6.570;2023-04-10T07:11:28;101893.38;;;8.55;83.92
20909;BME280;10614;53.198;6.570;2023-04-10T07:13:33;101900.31;;;8.59;83.87
20909;BME280;10614;53.198;6.570;2023-04-10T07:15:38;101887.19;;;8.59;83.45
20909;BME280;10614;53.198;6.570;2023-04-10T07:17:39;101887.13;;;8.64;83.66
20909;BME280;10614;53.198;6.570;2023-04-10T07:19:41;101882.75;;;8.63;84.25
20909;BME280;10614;53.198;6.570;2023-04-10T07:21:43;101873.09;;;8.65;84.20
20909;BME280;10614;53.198;6.570;2023-04-10T07:23:49;101877.44;;;8.69;83.32
20909;BME280;10614;53.198;6.570;2023-04-10T07:25:51;101858.22;;;8.65;83.41
20909;BME280;10614;53.198;6.570;2023-04-10T07:27:54;101859.00;;;8.72;82.93
20909;BME280;10614;53.198;6.570;2023-04-10T07:29:57;101870.25;;;8.79;83.53
20909;BME280;10614;53.198;6.570;2023-04-10T07:31:59;101865.00;;;8.80;83.12
20909;BME280;10614;53.198;6.570;2023-04-10T07:34:00;101859.69;;;8.83;83.48
20909;BME280;10614;53.198;6.570;2023-04-10T07:36:03;101844.78;;;8.85;82.63
20909;BME280;10614;53.198;6.570;2023-04-10T07:38:05;101840.31;;;8.91;82.44
20909;BME280;10614;53.198;6.570;2023-04-10T07:40:08;101840.25;;;8.94;82.67
20909;BME280;10614;53.198;6.570;2023-04-10T07:42:10;101837.59;;;8.97;82.00
20909;BME280;10614;53.198;6.570;2023-04-10T07:44:14;101834.88;;;9.01;82.16
20909;BME280;10614;53.198;6.570;2023-04-10T07:46:17;101831.34;;;9.04;82.29
20909;BME280;10614;53.198;6.570;2023-04-10T07:48:19;101825.97;;;9.10;82.29
20909;BME280;10614;53.198;6.570;2023-04-10T07:50:20;101831.09;;;9.18;81.59
20909;BME280;10614;53.198;6.570;2023-04-10T07:52:22;101821.38;;;9.23;80.85
20909;BME280;10614;53.198;6.570;2023-04-10T07:54:24;101817.75;;;9.27;80.59
20909;BME280;10614;53.198;6.570;2023-04-10T07:56:26;101804.53;;;9.32;81.09
20909;BME280;10614;53.198;6.570;2023-04-10T07:58:30;101811.41;;;9.39;80.66
20909;BME280;10614;53.198;6.570;2023-04-10T08:00:34;101808.59;;;9.48;80.52
20909;BME280;10614;53.198;6.570;2023-04-10T08:02:36;101798.88;;;9.53;80.51
20909;BME280;10614;53.198;6.570;2023-04-10T08:04:51;101798.72;;;9.59;79.58
20909;BME280;10614;53.198;6.570;2023-04-10T08:06:53;101796.91;;;9.63;78.30
20909;BME280;10614;53.198;6.570;2023-04-10T08:08:57;101789.88;;;9.65;78.00
20909;BME280;10614;53.198;6.570;2023-04-10T08:11:01;101778.34;;;9.70;78.41
20909;BME280;10614;53.198;6.570;2023-04-10T08:13:02;101782.56;;;9.79;77.00
20909;BME280;10614;53.198;6.570;2023-04-10T08:15:05;101776.28;;;9.85;76.73
20909;BME280;10614;53.198;6.570;2023-04-10T08:17:09;101772.63;;;9.92;76.86
20909;BME280;10614;53.198;6.570;2023-04-10T08:19:14;101769.97;;;9.93;76.23
20909;BME280;10614;53.198;6.570;2023-04-10T08:21:16;101775.03;;;10.01;76.06
20909;BME280;10614;53.198;6.570;2023-04-10T08:23:18;101766.22;;;10.04;74.78
20909;BME280;10614;53.198;6.570;2023-04-10T08:25:20;101761.78;;;10.06;75.53
20909;BME280;10614;53.198;6.570;2023-04-10T08:27:22;101764.34;;;10.09;75.39
20909;BME280;10614;53.198;6.570;2023-04-10T08:29:23;101760.78;;;10.11;74.80
20909;BME280;10614;53.198;6.570;2023-04-10T08:31:26;101762.44;;;10.15;74.29
20909;BME280;10614;53.198;6.570;2023-04-10T08:33:30;101754.38;;;10.23;73.69
20909;BME280;10614;53.198;6.570;2023-04-10T08:35:32;101758.66;;;10.29;74.70
20909;BME280;10614;53.198;6.570;2023-04-10T08:37:33;101754.97;;;10.36;74.12
20909;BME280;10614;53.198;6.570;2023-04-10T08:39:35;101754.81;;;10.42;73.63
20909;BME280;10614;53.198;6.570;2023-04-10T08:41:39;101753.81;;;10.46;72.69
20909;BME280;10614;53.198;6.570;2023-04-10T08:43:41;101745.81;;;10.51;73.46
20909;BME280;10614;53.198;6.570;2023-04-10T08:45:45;101742.19;;;10.56;71.97
20909;BME280;10614;53.198;6.570;2023-04-10T08:47:47;101735.94;;;10.61;73.01
20909;BME280;10614;53.198;6.570;2023-04-10T08:49:55;101735.88;;;10.62;72.54
20909;BME280;10614;53.198;6.570;2023-04-10T08:51:58;101747.94;;;10.71;72.62
20909;BME280;10614;53.198;6.570;2023-04-10T08:54:05;101746.06;;;10.76;71.38
20909;BME280;10614;53.198;6.570;2023-04-10T08:56:11;101746.78;;;10.81;71.59
20909;BME280;10614;53.198;6.570;2023-04-10T08:58:14;101746.75;;;10.83;71.75
20909;BME280;10614;53.198;6.570;2023-04-10T09:00:17;101739.59;;;10.88;71.31
20909;BME280;10614;53.198;6.570;2023-04-10T09:02:19;101729.84;;;10.91;71.94
20909;BME280;10614;53.198;6.570;2023-04-10T09:04:21;101729.72;;;10.96;71.32
20909;BME280;10614;53.198;6.570;2023-04-10T09:06:24;101731.41;;;10.98;70.76
20909;BME280;10614;53.198;6.570;2023-04-10T09:08:26;101735.72;;;11.01;70.61
20909;BME280;10614;53.198;6.570;2023-04-10T09:10:29;101720.63;;;11.08;70.45
20909;BME280;10614;53.198;6.570;2023-04-10T09:12:42;101718.69;;;11.14;70.19
20909;BME280;10614;53.198;6.570;2023-04-10T09:14:44;101711.50;;;11.19;69.48
20909;BME280;10614;53.198;6.570;2023-04-10T09:16:53;101711.31;;;11.26;69.26
20909;BME280;10614;53.198;6.570;2023-04-10T09:18:56;101706.78;;;11.31;68.61
20909;BME280;10614;53.198;6.570;2023-04-10T09:21:05;101697.78;;;11.38;68.83
20909;BME280;10614;53.198;6.570;2023-04-10T09:23:20;101698.44;;;11.45;69.43
20909;BME280;10614;53.198;6.570;2023-04-10T09:25:31;101692.97;;;11.52;68.90
20909;BME280;10614;53.198;6.570;2023-04-10T09:27:34;101691.00;;;11.59;67.71
20909;BME280;10614;53.198;6.570;2023-04-10T09:29:43;101682.00;;;11.66;66.97
20909;BME280;10614;53.198;6.570;2023-04-10T09:31:49;101682.72;;;11.71;66.66
20909;BME280;10614;53.198;6.570;2023-04-10T09:34:06;101676.38;;;11.77;65.51
20909;BME280;10614;53.198;6.570;2023-04-10T09:36:11;101653.34;;;11.82;65.45
20909;BME280;10614;53.198;6.570;2023-04-10T09:38:14;101652.34;;;11.86;64.60
20909;BME280;10614;53.198;6.570;2023-04-10T09:40:23;101652.19;;;11.92;65.00
20909;BME280;10614;53.198;6.570;2023-04-10T09:42:30;101650.25;;;11.97;65.20
20909;BME280;10614;53.198;6.570;2023-04-10T09:44:33;101647.41;;;12.03;65.06
20909;BME280;10614;53.198;6.570;2023-04-10T09:46:35;101642.78;;;12.10;65.98
20909;BME280;10614;53.198;6.570;2023-04-10T09:48:53;101640.75;;;12.18;65.41
20909;BME280;10614;53.198;6.570;2023-04-10T09:50:55;101635.28;;;12.24;65.29
20909;BME280;10614;53.198;6.570;2023-04-10T09:52:57;101641.25;;;12.30;64.22
20909;BME280;10614;53.198;6.570;2023-04-10T09:55:00;101628.78;;;12.33;63.44
20909;BME280;10614;53.198;6.570;2023-04-10T09:57:03;101629.44;;;12.40;63.32
20909;BME280;10614;53.198;6.570;2023-04-10T09:59:07;101625.75;;;12.45;63.51
20909;BME280;10614;53.198;6.570;2023-04-10T10:01:11;101622.91;;;12.50;63.00
20909;BME280;10614;53.198;6.570;2023-04-10T10:03:14;101620.06;;;12.56;62.73
20909;BME280;10614;53.198;6.570;2023-04-10T10:05:17;101615.47;;;12.61;62.91
20909;BME280;10614;53.198;6.570;2023-04-10T10:07:21;101611.75;;;12.67;62.86
20909;BME280;10614;53.198;6.570;2023-04-10T10:09:23;101607.13;;;12.74;62.91
20909;BME280;10614;53.198;6.570;2023-04-10T10:11:28;101611.34;;;12.78;61.70
20909;BME280;10614;53.198;6.570;2023-04-10T10:13:34;101601.47;;;12.83;61.23
20909;BME280;10614;53.198;6.570;2023-04-10T10:15:45;101592.47;;;12.88;60.98
20909;BME280;10614;53.198;6.570;2023-04-10T10:17:53;101588.81;;;12.93;60.29
20909;BME280;10614;53.198;6.570;2023-04-10T10:20:02;101581.38;;;13.02;60.53
20909;BME280;10614;53.198;6.570;2023-04-10T10:22:05;101570.69;;;13.05;59.95
20909;BME280;10614;53.198;6.570;2023-04-10T10:24:10;101567.84;;;13.10;60.24
20909;BME280;10614;53.198;6.570;2023-04-10T10:26:13;101568.53;;;13.15;59.80
20909;BME280;10614;53.198;6.570;2023-04-10T10:28:15;101558.63;;;13.20;59.46
20909;BME280;10614;53.198;6.570;2023-04-10T10:30:20;101560.19;;;13.26;58.88
20909;BME280;10614;53.198;6.570;2023-04-10T10:32:23;101558.38;;;13.28;58.80
20909;BME280;10614;53.198;6.570;2023-04-10T10:34:25;101546.75;;;13.32;59.73
20909;BME280;10614;53.198;6.570;2023-04-10T10:36:27;101543.06;;;13.36;59.31
20909;BME280;10614;53.198;6.570;2023-04-10T10:38:30;101536.78;;;13.39;59.29
20909;BME280;10614;53.198;6.570;2023-04-10T10:40:37;101535.59;;;13.46;59.92
20909;BME280;10614;53.198;6.570;2023-04-10T10:42:45;101534.50;;;13.51;59.78
20909;BME280;10614;53.198;6.570;2023-04-10T10:44:56;101531.72;;;13.55;58.87
20909;BME280;10614;53.198;6.570;2023-04-10T10:47:06;101525.53;;;13.56;58.46
20909;BME280;10614;53.198;6.570;2023-04-10T10:49:12;101529.84;;;13.58;57.62